sensor_id;sensor_type;location;lat;lon;timestamp;temperature;humidity
27128;DHT22;14660;49.008;8.390;2023-04-29T00:00:44;14.80;99.90
27128;DHT22;14660;49.008;8.390;2023-04-29T00:03:31;14.70;99.90
27128;DHT22;14660;49.008;8.390;2023-04-29T00:05:59;14.80;99.90
27128;DHT22;14660;49.008;8.390;2023-04-29T00:08:26;14.70;99.90
27128;DHT22;14660;49.008;8.390;2023-04-29T00:10:53;14.70;99.90
27128;DHT22;14660;49.008;8.390;2023-04-29T00:13:20;14.90;99.90
27128;DHT22;14660;49.008;8.390;2023-04-29T00:15:47;14.80;99.90
27128;DHT22;14660;49.008;8.390;2023-04-29T00:18:14;14.80;99.90
27128;DHT22;14660;49.008;8.390;2023-04-29T00:20:41;14.80;99.90
27128;DHT22;14660;49.008;8.390;2023-04-29T00:23:08;14.80;99.90
27128;DHT22;14660;49.008;8.390;2023-04-29T00:25:35;14.70;99.90
27128;DHT22;14660;49.008;8.390;2023-04-29T00:28:07;14.70;99.90
27128;DHT22;14660;49.008;8.390;2023-04-29T00:30:34;14.70;99.90
27128;DHT22;14660;49.008;8.390;2023-04-29T00:33:01;14.70;99.90
27128;DHT22;14660;49.008;8.390;2023-04-29T00:35:28;14.60;99.90
27128;DHT22;14660;49.008;8.390;2023-04-29T00:37:54;14.50;99.90
27128;DHT22;14660;49.008;8.390;2023-04-29T00:40:21;14.50;99.90
27128;DHT22;14660;49.008;8.390;2023-04-29T00:42:48;14.50;99.90
27128;DHT22;14660;49.008;8.390;2023-04-29T00:45:15;14.60;99.90
27128;DHT22;14660;49.008;8.390;2023-04-29T00:47:42;14.60;99.90
27128;DHT22;14660;49.008;8.390;2023-04-29T00:50:09;14.60;99.90
27128;DHT22;14660;49.008;8.390;2023-04-29T00:52:37;14.60;99.90
27128;DHT22;14660;49.008;8.390;2023-04-29T00:55:06;14.50;99.90
27128;DHT22;14660;49.008;8.390;2023-04-29T00:57:34;14.50;99.90
27128;DHT22;14660;49.008;8.390;2023-04-29T01:00:01;14.40;99.90
27128;DHT22;14660;49.008;8.390;2023-04-29T01:02:30;14.40;99.90
27128;DHT22;14660;49.008;8.390;2023-04-29T01:05:00;14.50;99.90
27128;DHT22;14660;49.008;8.390;2023-04-29T01:07:35;14.50;99.90
27128;DHT22;14660;49.008;8.390;2023-04-29T01:10:25;14.50;99.90
27128;DHT22;14660;49.008;8.390;2023-04-29T01:13:22;14.40;99.90
27128;DHT22;14660;49.008;8.390;2023-04-29T01:16:12;14.40;99.90
27128;DHT22;14660;49.008;8.390;2023-04-29T01:19:05;14.40;99.90
27128;DHT22;14660;49.008;8.390;2023-04-29T01:21:45;14.50;99.90
27128;DHT22;14660;49.008;8.390;2023-04-29T01:24:14;14.50;99.90
27128;DHT22;14660;49.008;8.390;2023-04-29T01:26:48;14.50;99.90
27128;DHT22;14660;49.008;8.390;2023-04-29T01:29:39;14.40;99.90
27128;DHT22;14660;49.008;8.390;2023-04-29T01:32:25;14.40;99.90
27128;DHT22;14660;49.008;8.390;2023-04-29T01:35:36;14.40;99.90
27128;DHT22;14660;49.008;8.390;2023-04-29T01:41:46;14.40;99.90
27128;DHT22;14660;49.008;8.390;2023-04-29T01:44:20;14.30;99.90
27128;DHT22;14660;49.008;8.390;2023-04-29T01:46:51;14.30;99.90
27128;DHT22;14660;49.008;8.390;2023-04-29T01:49:26;14.20;99.90
27128;DHT22;14660;49.008;8.390;2023-04-29T01:51:53;14.20;99.90
27128;DHT22;14660;49.008;8.390;2023-04-29T01:54:21;14.30;99.90
27128;DHT22;14660;49.008;8.390;2023-04-29T01:56:51;14.20;99.90
27128;DHT22;14660;49.008;8.390;2023-04-29T01:59:18;14.20;99.90
27128;DHT22;14660;49.008;8.390;2023-04-29T02:01:45;14.20;99.90
27128;DHT22;14660;49.008;8.390;2023-04-29T02:04:12;14.20;99.90
27128;DHT22;14660;49.008;8.390;2023-04-29T02:06:39;14.20;99.90
27128;DHT22;14660;49.008;8.390;2023-04-29T02:09:05;14.10;99.90
27128;DHT22;14660;49.008;8.390;2023-04-29T02:11:32;14.10;99.90
27128;DHT22;14660;49.008;8.390;2023-04-29T02:13:59;14.10;99.90
27128;DHT22;14660;49.008;8.390;2023-04-29T02:16:25;14.10;99.90
27128;DHT22;14660;49.008;8.390;2023-04-29T02:18:52;14.10;99.90
27128;DHT22;14660;49.008;8.390;2023-04-29T02:21:19;14.10;99.90
27128;DHT22;14660;49.008;8.390;2023-04-29T02:23:45;14.10;99.90
27128;DHT22;14660;49.008;8.390;2023-04-29T02:26:12;14.10;99.90
27128;DHT22;14660;49.008;8.390;2023-04-29T02:28:40;14.00;99.90
27128;DHT22;14660;49.008;8.390;2023-04-29T02:31:08;14.00;99.90
27128;DHT22;14660;49.008;8.390;2023-04-29T02:33:35;14.00;99.90
27128;DHT22;14660;49.008;8.390;2023-04-29T02:36:02;14.00;99.90
27128;DHT22;14660;49.008;8.390;2023-04-29T02:38:28;14.00;99.90
27128;DHT22;14660;49.008;8.390;2023-04-29T02:40:55;13.90;99.90
27128;DHT22;14660;49.008;8.390;2023-04-29T02:43:22;13.90;99.90
27128;DHT22;14660;49.008;8.390;2023-04-29T02:45:49;13.90;99.90
27128;DHT22;14660;49.008;8.390;2023-04-29T02:48:16;13.90;99.90
27128;DHT22;14660;49.008;8.390;2023-04-29T02:50:43;13.80;99.90
27128;DHT22;14660;49.008;8.390;2023-04-29T02:53:10;13.90;99.90
27128;DHT22;14660;49.008;8.390;2023-04-29T02:55:37;13.80;99.90
27128;DHT22;14660;49.008;8.390;2023-04-29T02:58:04;13.90;99.90
27128;DHT22;14660;49.008;8.390;2023-04-29T03:00:30;13.90;99.90
27128;DHT22;14660;49.008;8.390;2023-04-29T03:02:57;13.90;99.90
27128;DHT22;14660;49.008;8.390;2023-04-29T03:05:24;13.80;99.90
27128;DHT22;14660;49.008;8.390;2023-04-29T03:07:51;13.80;99.90
27128;DHT22;14660;49.008;8.390;2023-04-29T03:10:18;13.80;99.90
27128;DHT22;14660;49.008;8.390;2023-04-29T03:12:45;13.80;99.90
27128;DHT22;14660;49.008;8.390;2023-04-29T03:15:12;13.70;99.90
27128;DHT22;14660;49.008;8.390;2023-04-29T03:17:39;13.70;99.90
27128;DHT22;14660;49.008;8.390;2023-04-29T03:20:06;13.70;99.90
27128;DHT22;14660;49.008;8.390;2023-04-29T03:22:33;13.60;99.90
27128;DHT22;14660;49.008;8.390;2023-04-29T03:25:00;13.50;99.90
27128;DHT22;14660;49.008;8.390;2023-04-29T03:27:27;13.50;99.90
27128;DHT22;14660;49.008;8.390;2023-04-29T03:29:54;13.50;99.90
27128;DHT22;14660;49.008;8.390;2023-04-29T03:32:20;13.50;99.90
27128;DHT22;14660;49.008;8.390;2023-04-29T03:34:46;13.50;99.90
27128;DHT22;14660;49.008;8.390;2023-04-29T03:37:15;13.50;99.90
27128;DHT22;14660;49.008;8.390;2023-04-29T03:39:42;13.50;99.90
27128;DHT22;14660;49.008;8.390;2023-04-29T03:42:09;13.50;99.90
27128;DHT22;14660;49.008;8.390;2023-04-29T03:44:35;13.50;99.90
27128;DHT22;14660;49.008;8.390;2023-04-29T03:47:03;13.60;99.90
27128;DHT22;14660;49.008;8.390;2023-04-29T03:49:29;13.60;99.90
27128;DHT22;14660;49.008;8.390;2023-04-29T03:51:57;13.50;99.90
27128;DHT22;14660;49.008;8.390;2023-04-29T03:54:23;13.50;99.90
27128;DHT22;14660;49.008;8.390;2023-04-29T03:56:50;13.50;99.90
27128;DHT22;14660;49.008;8.390;2023-04-29T03:59:17;13.50;99.90
27128;DHT22;14660;49.008;8.390;2023-04-29T04:01:44;13.50;99.90
27128;DHT22;14660;49.008;8.390;2023-04-29T04:04:11;13.50;99.90
27128;DHT22;14660;49.008;8.390;2023-04-29T04:06:38;13.50;99.90
27128;DHT22;14660;49.008;8.390;2023-04-29T04:09:05;13.40;99.90
27128;DHT22;14660;49.008;8.390;2023-04-29T04:11:32;13.40;99.90
27128;DHT22;14660;49.008;8.390;2023-04-29T04:13:59;13.40;99.90
27128;DHT22;14660;49.008;8.390;2023-04-29T04:16:26;13.30;99.90
27128;DHT22;14660;49.008;8.390;2023-04-29T04:18:52;13.30;99.90
27128;DHT22;14660;49.008;8.390;2023-04-29T04:21:19;13.30;99.90
27128;DHT22;14660;49.008;8.390;2023-04-29T04:23:46;13.20;99.90
27128;DHT22;14660;49.008;8.390;2023-04-29T04:26:13;13.10;99.90
27128;DHT22;14660;49.008;8.390;2023-04-29T04:28:39;13.10;99.90
27128;DHT22;14660;49.008;8.390;2023-04-29T04:31:06;13.10;99.90
27128;DHT22;14660;49.008;8.390;2023-04-29T04:33:33;13.10;99.90
27128;DHT22;14660;49.008;8.390;2023-04-29T04:36:00;13.10;99.90
27128;DHT22;14660;49.008;8.390;2023-04-29T04:38:27;13.10;99.90
27128;DHT22;14660;49.008;8.390;2023-04-29T04:40:54;13.00;99.90
27128;DHT22;14660;49.008;8.390;2023-04-29T04:43:21;13.00;99.90
27128;DHT22;14660;49.008;8.390;2023-04-29T04:45:48;13.00;99.90
27128;DHT22;14660;49.008;8.390;2023-04-29T04:48:14;13.10;99.90
27128;DHT22;14660;49.008;8.390;2023-04-29T04:50:41;13.00;99.90
27128;DHT22;14660;49.008;8.390;2023-04-29T04:53:08;13.00;99.90
27128;DHT22;14660;49.008;8.390;2023-04-29T04:55:35;13.00;99.90
27128;DHT22;14660;49.008;8.390;2023-04-29T04:58:02;13.10;99.90
27128;DHT22;14660;49.008;8.390;2023-04-29T05:00:29;13.10;99.90
27128;DHT22;14660;49.008;8.390;2023-04-29T05:02:56;13.10;99.90
27128;DHT22;14660;49.008;8.390;2023-04-29T05:05:23;13.20;99.90
27128;DHT22;14660;49.008;8.390;2023-04-29T05:07:50;13.20;99.90
27128;DHT22;14660;49.008;8.390;2023-04-29T05:10:17;13.30;99.90
27128;DHT22;14660;49.008;8.390;2023-04-29T05:12:44;13.30;99.90
27128;DHT22;14660;49.008;8.390;2023-04-29T05:15:11;13.30;99.90
27128;DHT22;14660;49.008;8.390;2023-04-29T05:17:40;13.40;99.90
27128;DHT22;14660;49.008;8.390;2023-04-29T05:20:08;13.60;99.90
27128;DHT22;14660;49.008;8.390;2023-04-29T05:22:34;13.70;99.90
27128;DHT22;14660;49.008;8.390;2023-04-29T05:25:04;14.00;99.90
27128;DHT22;14660;49.008;8.390;2023-04-29T05:27:32;14.40;99.90
27128;DHT22;14660;49.008;8.390;2023-04-29T05:29:58;14.40;99.90
27128;DHT22;14660;49.008;8.390;2023-04-29T05:32:24;14.30;99.90
27128;DHT22;14660;49.008;8.390;2023-04-29T05:34:51;14.20;99.90
27128;DHT22;14660;49.008;8.390;2023-04-29T05:37:18;14.10;99.90
27128;DHT22;14660;49.008;8.390;2023-04-29T05:39:45;14.10;99.90
27128;DHT22;14660;49.008;8.390;2023-04-29T05:42:12;14.10;99.90
27128;DHT22;14660;49.008;8.390;2023-04-29T05:44:38;14.10;99.90
27128;DHT22;14660;49.008;8.390;2023-04-29T05:47:05;14.10;99.90
27128;DHT22;14660;49.008;8.390;2023-04-29T05:49:32;14.10;99.90
27128;DHT22;14660;49.008;8.390;2023-04-29T05:51:58;14.30;99.90
27128;DHT22;14660;49.008;8.390;2023-04-29T05:54:29;14.40;99.90
27128;DHT22;14660;49.008;8.390;2023-04-29T05:56:56;14.40;99.90
27128;DHT22;14660;49.008;8.390;2023-04-29T05:59:23;14.40;99.90
27128;DHT22;14660;49.008;8.390;2023-04-29T06:01:50;14.60;99.90
27128;DHT22;14660;49.008;8.390;2023-04-29T06:04:17;14.70;99.90
27128;DHT22;14660;49.008;8.390;2023-04-29T06:06:44;14.70;99.90
27128;DHT22;14660;49.008;8.390;2023-04-29T06:09:11;14.90;99.90
27128;DHT22;14660;49.008;8.390;2023-04-29T06:11:41;15.00;99.90
27128;DHT22;14660;49.008;8.390;2023-04-29T06:14:07;15.10;99.90
27128;DHT22;14660;49.008;8.390;2023-04-29T06:16:34;15.00;99.90
27128;DHT22;14660;49.008;8.390;2023-04-29T06:19:01;15.00;99.90
27128;DHT22;14660;49.008;8.390;2023-04-29T06:21:28;15.10;99.90
27128;DHT22;14660;49.008;8.390;2023-04-29T06:23:55;15.20;99.90
27128;DHT22;14660;49.008;8.390;2023-04-29T06:26:22;15.20;99.90
27128;DHT22;14660;49.008;8.390;2023-04-29T06:28:49;15.20;99.90
27128;DHT22;14660;49.008;8.390;2023-04-29T06:31:15;15.10;99.90
27128;DHT22;14660;49.008;8.390;2023-04-29T06:33:42;15.10;99.90
27128;DHT22;14660;49.008;8.390;2023-04-29T06:36:09;15.10;99.90
27128;DHT22;14660;49.008;8.390;2023-04-29T06:38:36;15.10;99.90
27128;DHT22;14660;49.008;8.390;2023-04-29T06:41:02;15.10;99.90
27128;DHT22;14660;49.008;8.390;2023-04-29T06:43:30;15.00;99.90
27128;DHT22;14660;49.008;8.390;2023-04-29T06:45:56;14.90;99.90
27128;DHT22;14660;49.008;8.390;2023-04-29T06:48:23;14.80;99.90
27128;DHT22;14660;49.008;8.390;2023-04-29T06:50:55;14.80;99.90
27128;DHT22;14660;49.008;8.390;2023-04-29T06:53:23;14.90;99.90
27128;DHT22;14660;49.008;8.390;2023-04-29T06:55:50;14.90;99.90
27128;DHT22;14660;49.008;8.390;2023-04-29T06:58:18;14.90;99.90
27128;DHT22;14660;49.008;8.390;2023-04-29T07:00:46;14.90;99.90
27128;DHT22;14660;49.008;8.390;2023-04-29T07:03:14;15.00;99.90
27128;DHT22;14660;49.008;8.390;2023-04-29T07:05:41;15.00;99.90
27128;DHT22;14660;49.008;8.390;2023-04-29T07:08:12;15.00;99.90
27128;DHT22;14660;49.008;8.390;2023-04-29T07:10:39;15.10;99.90
27128;DHT22;14660;49.008;8.390;2023-04-29T07:13:07;15.20;99.90
27128;DHT22;14660;49.008;8.390;2023-04-29T07:15:35;15.20;99.90
27128;DHT22;14660;49.008;8.390;2023-04-29T07:18:06;15.30;99.90
27128;DHT22;14660;49.008;8.390;2023-04-29T07:20:35;15.40;99.90
27128;DHT22;14660;49.008;8.390;2023-04-29T07:23:02;15.60;99.90
27128;DHT22;14660;49.008;8.390;2023-04-29T07:25:29;15.50;99.90
27128;DHT22;14660;49.008;8.390;2023-04-29T07:27:56;15.70;99.90
27128;DHT22;14660;49.008;8.390;2023-04-29T07:30:23;15.70;99.90
27128;DHT22;14660;49.008;8.390;2023-04-29T07:32:50;15.80;99.90
27128;DHT22;14660;49.008;8.390;2023-04-29T07:35:16;15.70;99.90
27128;DHT22;14660;49.008;8.390;2023-04-29T07:37:42;15.80;99.90
27128;DHT22;14660;49.008;8.390;2023-04-29T07:40:12;16.00;99.90
27128;DHT22;14660;49.008;8.390;2023-04-29T07:42:39;16.10;99.90
27128;DHT22;14660;49.008;8.390;2023-04-29T07:45:06;16.20;99.90
27128;DHT22;14660;49.008;8.390;2023-04-29T07:47:33;16.20;99.90
27128;DHT22;14660;49.008;8.390;2023-04-29T07:50:00;16.40;99.90
27128;DHT22;14660;49.008;8.390;2023-04-29T07:52:27;16.40;99.90
27128;DHT22;14660;49.008;8.390;2023-04-29T07:54:53;16.30;99.90
27128;DHT22;14660;49.008;8.390;2023-04-29T07:57:23;16.10;99.90
27128;DHT22;14660;49.008;8.390;2023-04-29T07:59:53;16.10;99.90
27128;DHT22;14660;49.008;8.390;2023-04-29T08:02:20;16.10;99.90
27128;DHT22;14660;49.008;8.390;2023-04-29T08:04:47;16.20;99.90
27128;DHT22;14660;49.008;8.390;2023-04-29T08:07:16;16.40;99.90
27128;DHT22;14660;49.008;8.390;2023-04-29T08:09:43;16.40;99.90
27128;DHT22;14660;49.008;8.390;2023-04-29T08:12:10;16.40;99.90
27128;DHT22;14660;49.008;8.390;2023-04-29T08:14:37;16.50;99.90
27128;DHT22;14660;49.008;8.390;2023-04-29T08:17:04;16.40;99.90
27128;DHT22;14660;49.008;8.390;2023-04-29T08:19:30;16.50;99.90
27128;DHT22;14660;49.008;8.390;2023-04-29T08:21:57;16.70;99.90
27128;DHT22;14660;49.008;8.390;2023-04-29T08:24:24;16.90;99.90
27128;DHT22;14660;49.008;8.390;2023-04-29T08:26:50;17.20;99.90
27128;DHT22;14660;49.008;8.390;2023-04-29T08:29:18;17.30;99.90
27128;DHT22;14660;49.008;8.390;2023-04-29T08:31:44;17.40;99.90
27128;DHT22;14660;49.008;8.390;2023-04-29T08:34:11;17.20;99.90
27128;DHT22;14660;49.008;8.390;2023-04-29T08:36:37;17.30;99.90
27128;DHT22;14660;49.008;8.390;2023-04-29T08:39:04;17.30;99.90
27128;DHT22;14660;49.008;8.390;2023-04-29T08:41:31;17.40;99.90
27128;DHT22;14660;49.008;8.390;2023-04-29T08:43:59;17.50;99.90
27128;DHT22;14660;49.008;8.390;2023-04-29T08:46:26;17.30;99.90
27128;DHT22;14660;49.008;8.390;2023-04-29T08:48:53;17.30;99.90
27128;DHT22;14660;49.008;8.390;2023-04-29T08:51:22;17.10;99.90
27128;DHT22;14660;49.008;8.390;2023-04-29T08:53:49;17.00;99.90
27128;DHT22;14660;49.008;8.390;2023-04-29T08:56:17;16.90;99.90
27128;DHT22;14660;49.008;8.390;2023-04-29T08:58:49;17.00;99.90
27128;DHT22;14660;49.008;8.390;2023-04-29T09:01:20;17.20;99.90
27128;DHT22;14660;49.008;8.390;2023-04-29T09:04:14;17.30;99.90
27128;DHT22;14660;49.008;8.390;2023-04-29T09:06:41;17.40;99.90
27128;DHT22;14660;49.008;8.390;2023-04-29T09:09:08;17.30;99.90
27128;DHT22;14660;49.008;8.390;2023-04-29T09:11:36;17.10;99.90
27128;DHT22;14660;49.008;8.390;2023-04-29T09:14:03;17.00;99.90
27128;DHT22;14660;49.008;8.390;2023-04-29T09:16:30;16.90;99.90
27128;DHT22;14660;49.008;8.390;2023-04-29T09:18:57;16.70;99.90
27128;DHT22;14660;49.008;8.390;2023-04-29T09:21:26;16.70;99.90
27128;DHT22;14660;49.008;8.390;2023-04-29T09:23:57;16.50;99.90
27128;DHT22;14660;49.008;8.390;2023-04-29T09:26:26;16.50;99.90
27128;DHT22;14660;49.008;8.390;2023-04-29T09:29:13;16.50;99.90
27128;DHT22;14660;49.008;8.390;2023-04-29T09:31:41;16.70;99.90
27128;DHT22;14660;49.008;8.390;2023-04-29T09:34:08;16.90;99.90
27128;DHT22;14660;49.008;8.390;2023-04-29T09:36:52;17.10;99.90
27128;DHT22;14660;49.008;8.390;2023-04-29T09:39:24;17.20;99.90
27128;DHT22;14660;49.008;8.390;2023-04-29T09:42:09;17.20;99.90
27128;DHT22;14660;49.008;8.390;2023-04-29T09:44:39;17.50;99.90
27128;DHT22;14660;49.008;8.390;2023-04-29T09:47:08;17.50;99.90
27128;DHT22;14660;49.008;8.390;2023-04-29T09:49:38;17.60;99.90
27128;DHT22;14660;49.008;8.390;2023-04-29T09:52:08;17.50;99.90
27128;DHT22;14660;49.008;8.390;2023-04-29T09:54:37;17.50;99.90
27128;DHT22;14660;49.008;8.390;2023-04-29T09:57:06;17.50;99.90
27128;DHT22;14660;49.008;8.390;2023-04-29T09:59:35;17.60;99.90
27128;DHT22;14660;49.008;8.390;2023-04-29T10:02:09;17.70;99.90
27128;DHT22;14660;49.008;8.390;2023-04-29T10:04:41;17.80;99.90
27128;DHT22;14660;49.008;8.390;2023-04-29T10:07:15;17.90;99.90
27128;DHT22;14660;49.008;8.390;2023-04-29T10:09:44;18.00;99.90
27128;DHT22;14660;49.008;8.390;2023-04-29T10:12:15;17.90;99.90
27128;DHT22;14660;49.008;8.390;2023-04-29T10:15:00;17.80;99.90
27128;DHT22;14660;49.008;8.390;2023-04-29T10:17:48;17.60;99.90
27128;DHT22;14660;49.008;8.390;2023-04-29T10:20:22;17.40;99.90
27128;DHT22;14660;49.008;8.390;2023-04-29T10:22:51;17.10;99.90
27128;DHT22;14660;49.008;8.390;2023-04-29T10:25:21;16.30;99.90
27128;DHT22;14660;49.008;8.390;2023-04-29T10:27:49;15.90;99.90
27128;DHT22;14660;49.008;8.390;2023-04-29T10:30:19;15.80;99.90
27128;DHT22;14660;49.008;8.390;2023-04-29T10:32:49;15.80;99.90
27128;DHT22;14660;49.008;8.390;2023-04-29T10:35:17;15.80;99.90
27128;DHT22;14660;49.008;8.390;2023-04-29T10:37:48;15.60;99.90
27128;DHT22;14660;49.008;8.390;2023-04-29T10:40:41;15.50;99.90
27128;DHT22;14660;49.008;8.390;2023-04-29T10:43:09;15.80;99.90
27128;DHT22;14660;49.008;8.390;2023-04-29T10:45:37;16.30;99.90
27128;DHT22;14660;49.008;8.390;2023-04-29T10:48:21;16.50;99.90
27128;DHT22;14660;49.008;8.390;2023-04-29T10:51:08;17.00;99.90
27128;DHT22;14660;49.008;8.390;2023-04-29T10:53:36;17.30;99.90
27128;DHT22;14660;49.008;8.390;2023-04-29T10:56:37;17.50;99.90
27128;DHT22;14660;49.008;8.390;2023-04-29T10:59:05;17.10;99.90
27128;DHT22;14660;49.008;8.390;2023-04-29T11:02:01;17.10;99.90
27128;DHT22;14660;49.008;8.390;2023-04-29T11:04:30;17.10;99.90
27128;DHT22;14660;49.008;8.390;2023-04-29T11:06:57;16.60;99.90
27128;DHT22;14660;49.008;8.390;2023-04-29T11:09:49;16.50;99.90
27128;DHT22;14660;49.008;8.390;2023-04-29T11:12:19;16.50;99.90
27128;DHT22;14660;49.008;8.390;2023-04-29T11:14:49;16.10;99.90
27128;DHT22;14660;49.008;8.390;2023-04-29T11:17:18;16.00;99.90
27128;DHT22;14660;49.008;8.390;2023-04-29T11:20:04;15.70;99.90
27128;DHT22;14660;49.008;8.390;2023-04-29T11:22:36;15.60;99.90
27128;DHT22;14660;49.008;8.390;2023-04-29T11:25:07;15.70;99.90
27128;DHT22;14660;49.008;8.390;2023-04-29T11:27:52;15.80;99.90
27128;DHT22;14660;49.008;8.390;2023-04-29T11:30:21;15.80;99.90
27128;DHT22;14660;49.008;8.390;2023-04-29T11:32:48;15.80;99.90
27128;DHT22;14660;49.008;8.390;2023-04-29T11:35:17;15.80;99.90
27128;DHT22;14660;49.008;8.390;2023-04-29T11:37:46;15.90;99.90
27128;DHT22;14660;49.008;8.390;2023-04-29T11:40:13;16.00;99.90
27128;DHT22;14660;49.008;8.390;2023-04-29T11:42:46;16.00;99.90
27128;DHT22;14660;49.008;8.390;2023-04-29T11:45:17;16.10;99.90
27128;DHT22;14660;49.008;8.390;2023-04-29T11:47:45;16.00;99.90
27128;DHT22;14660;49.008;8.390;2023-04-29T11:50:14;15.90;99.90
27128;DHT22;14660;49.008;8.390;2023-04-29T11:52:45;15.60;99.90
27128;DHT22;14660;49.008;8.390;2023-04-29T11:55:12;15.50;99.90
27128;DHT22;14660;49.008;8.390;2023-04-29T11:57:40;15.70;99.90
27128;DHT22;14660;49.008;8.390;2023-04-29T12:00:09;15.80;99.90
27128;DHT22;14660;49.008;8.390;2023-04-29T12:02:42;15.90;99.90
27128;DHT22;14660;49.008;8.390;2023-04-29T12:05:09;16.00;99.90
27128;DHT22;14660;49.008;8.390;2023-04-29T12:07:38;16.00;99.90
27128;DHT22;14660;49.008;8.390;2023-04-29T12:10:09;16.10;99.90
27128;DHT22;14660;49.008;8.390;2023-04-29T12:12:36;16.10;99.90
27128;DHT22;14660;49.008;8.390;2023-04-29T12:15:07;16.10;99.90
27128;DHT22;14660;49.008;8.390;2023-04-29T12:17:38;16.20;99.90
27128;DHT22;14660;49.008;8.390;2023-04-29T12:20:06;16.40;99.90
27128;DHT22;14660;49.008;8.390;2023-04-29T12:22:36;16.50;99.90
27128;DHT22;14660;49.008;8.390;2023-04-29T12:25:06;16.60;99.90
27128;DHT22;14660;49.008;8.390;2023-04-29T12:27:34;16.60;99.90
27128;DHT22;14660;49.008;8.390;2023-04-29T12:30:01;16.20;99.90
27128;DHT22;14660;49.008;8.390;2023-04-29T12:32:32;16.30;99.90
27128;DHT22;14660;49.008;8.390;2023-04-29T12:34:59;16.40;99.90
27128;DHT22;14660;49.008;8.390;2023-04-29T12:37:26;16.50;99.90
27128;DHT22;14660;49.008;8.390;2023-04-29T12:39:54;16.40;99.90
27128;DHT22;14660;49.008;8.390;2023-04-29T12:42:21;16.50;99.90
27128;DHT22;14660;49.008;8.390;2023-04-29T12:44:48;16.50;99.90
27128;DHT22;14660;49.008;8.390;2023-04-29T12:47:15;16.70;99.90
27128;DHT22;14660;49.008;8.390;2023-04-29T12:49:46;16.90;99.90
27128;DHT22;14660;49.008;8.390;2023-04-29T12:52:13;16.80;99.90
27128;DHT22;14660;49.008;8.390;2023-04-29T12:54:40;17.00;99.90
27128;DHT22;14660;49.008;8.390;2023-04-29T12:57:09;17.00;99.90
27128;DHT22;14660;49.008;8.390;2023-04-29T12:59:37;16.70;99.90
27128;DHT22;14660;49.008;8.390;2023-04-29T13:02:04;16.50;99.90
27128;DHT22;14660;49.008;8.390;2023-04-29T13:04:30;16.70;99.90
27128;DHT22;14660;49.008;8.390;2023-04-29T13:06:57;16.80;99.90
27128;DHT22;14660;49.008;8.390;2023-04-29T13:09:26;17.00;99.90
27128;DHT22;14660;49.008;8.390;2023-04-29T13:11:53;17.20;99.90
27128;DHT22;14660;49.008;8.390;2023-04-29T13:14:20;17.40;99.90
27128;DHT22;14660;49.008;8.390;2023-04-29T13:16:47;17.40;99.90
27128;DHT22;14660;49.008;8.390;2023-04-29T13:19:14;17.50;99.90
27128;DHT22;14660;49.008;8.390;2023-04-29T13:21:41;17.50;99.90
27128;DHT22;14660;49.008;8.390;2023-04-29T13:24:08;17.40;99.90
27128;DHT22;14660;49.008;8.390;2023-04-29T13:26:36;17.60;99.90
27128;DHT22;14660;49.008;8.390;2023-04-29T13:29:04;17.40;99.90
27128;DHT22;14660;49.008;8.390;2023-04-29T13:31:30;17.30;99.90
27128;DHT22;14660;49.008;8.390;2023-04-29T13:33:58;16.80;99.90
27128;DHT22;14660;49.008;8.390;2023-04-29T13:36:24;16.90;99.90
27128;DHT22;14660;49.008;8.390;2023-04-29T13:38:53;17.00;99.90
27128;DHT22;14660;49.008;8.390;2023-04-29T13:41:20;16.80;99.90
27128;DHT22;14660;49.008;8.390;2023-04-29T13:43:48;16.60;99.90
27128;DHT22;14660;49.008;8.390;2023-04-29T13:46:15;16.40;99.90
27128;DHT22;14660;49.008;8.390;2023-04-29T13:48:42;16.30;99.90
27128;DHT22;14660;49.008;8.390;2023-04-29T13:51:09;16.40;99.90
27128;DHT22;14660;49.008;8.390;2023-04-29T13:53:36;16.60;99.90
27128;DHT22;14660;49.008;8.390;2023-04-29T13:56:03;16.70;99.90
27128;DHT22;14660;49.008;8.390;2023-04-29T13:58:30;16.80;99.90
27128;DHT22;14660;49.008;8.390;2023-04-29T14:00:57;16.80;99.90
27128;DHT22;14660;49.008;8.390;2023-04-29T14:03:24;16.50;99.90
27128;DHT22;14660;49.008;8.390;2023-04-29T14:05:51;16.30;99.90
27128;DHT22;14660;49.008;8.390;2023-04-29T14:08:17;16.50;99.90
27128;DHT22;14660;49.008;8.390;2023-04-29T14:10:44;16.50;99.90
27128;DHT22;14660;49.008;8.390;2023-04-29T14:13:11;16.40;99.90
27128;DHT22;14660;49.008;8.390;2023-04-29T14:15:38;16.30;99.90
27128;DHT22;14660;49.008;8.390;2023-04-29T14:18:05;16.50;99.90
27128;DHT22;14660;49.008;8.390;2023-04-29T14:20:34;16.60;99.90
27128;DHT22;14660;49.008;8.390;2023-04-29T14:23:01;16.60;99.90
27128;DHT22;14660;49.008;8.390;2023-04-29T14:25:28;16.40;99.90
27128;DHT22;14660;49.008;8.390;2023-04-29T14:27:55;16.30;99.90
27128;DHT22;14660;49.008;8.390;2023-04-29T14:30:21;16.30;99.90
27128;DHT22;14660;49.008;8.390;2023-04-29T14:32:48;16.30;99.90
27128;DHT22;14660;49.008;8.390;2023-04-29T14:35:15;16.30;99.90
27128;DHT22;14660;49.008;8.390;2023-04-29T14:37:42;16.40;99.90
27128;DHT22;14660;49.008;8.390;2023-04-29T14:40:09;16.20;99.90
27128;DHT22;14660;49.008;8.390;2023-04-29T14:42:38;16.10;99.90
27128;DHT22;14660;49.008;8.390;2023-04-29T14:45:05;16.10;99.90
27128;DHT22;14660;49.008;8.390;2023-04-29T14:47:32;16.00;99.90
27128;DHT22;14660;49.008;8.390;2023-04-29T14:49:59;16.10;99.90
27128;DHT22;14660;49.008;8.390;2023-04-29T14:52:25;15.80;99.90
27128;DHT22;14660;49.008;8.390;2023-04-29T14:54:52;15.90;99.90
27128;DHT22;14660;49.008;8.390;2023-04-29T14:57:19;15.80;99.90
27128;DHT22;14660;49.008;8.390;2023-04-29T14:59:46;15.70;99.90
27128;DHT22;14660;49.008;8.390;2023-04-29T15:02:13;15.60;99.90
27128;DHT22;14660;49.008;8.390;2023-04-29T15:04:40;15.40;99.90
27128;DHT22;14660;49.008;8.390;2023-04-29T15:07:12;15.40;99.90
27128;DHT22;14660;49.008;8.390;2023-04-29T15:09:39;15.40;99.90
27128;DHT22;14660;49.008;8.390;2023-04-29T15:12:06;15.50;99.90
27128;DHT22;14660;49.008;8.390;2023-04-29T15:14:33;15.60;99.90
27128;DHT22;14660;49.008;8.390;2023-04-29T15:17:00;15.60;99.90
27128;DHT22;14660;49.008;8.390;2023-04-29T15:19:27;15.60;99.90
27128;DHT22;14660;49.008;8.390;2023-04-29T15:21:54;15.50;99.90
27128;DHT22;14660;49.008;8.390;2023-04-29T15:24:21;15.40;99.90
27128;DHT22;14660;49.008;8.390;2023-04-29T15:26:47;15.30;99.90
27128;DHT22;14660;49.008;8.390;2023-04-29T15:29:15;15.30;99.90
27128;DHT22;14660;49.008;8.390;2023-04-29T15:31:41;15.30;99.90
27128;DHT22;14660;49.008;8.390;2023-04-29T15:34:08;15.30;99.90
27128;DHT22;14660;49.008;8.390;2023-04-29T15:36:35;15.20;99.90
27128;DHT22;14660;49.008;8.390;2023-04-29T15:39:02;15.30;99.90
27128;DHT22;14660;49.008;8.390;2023-04-29T15:41:29;15.40;99.90
27128;DHT22;14660;49.008;8.390;2023-04-29T15:43:59;15.30;99.90